Time;durP1;ratioP1;P1;durP2;ratioP2;P2;SDS_P1;SDS_P2;PMS_P1;PMS_P2;Temp;Humidity;BMP_temperature;BMP_pressure;BME280_temperature;BME280_humidity;BME280_pressure;Samples;Min_cycle;Max_cycle;Signal;HPM_P1;HPM_P2
2021/12/09 00:01:09;;;;;;;;;3.00;1.75;;;;;5.22;63.99;99915.16;4994783;28;45529;-74
2021/12/09 00:03:40;;;;;;;;;2.25;2.25;;;;;5.53;63.94;99971.69;4994646;28;45313;-76
2021/12/09 00:06:07;;;;;;;;;7.00;5.50;;;;;5.56;63.99;99971.69;4994587;28;45426;-76
2021/12/09 00:08:37;;;;;;;;;2.00;2.00;;;;;5.40;64.23;99945.63;4976279;28;45238;-75
2021/12/09 00:11:05;;;;;;;;;9.50;9.50;;;;;5.61;64.29;99968.19;4976822;28;45456;-74
2021/12/09 00:13:30;;;;;;;;;5.25;2.00;;;;;5.56;64.11;99962.97;4994640;27;45168;-76
2021/12/09 00:15:57;;;;;;;;;1.25;1.00;;;;;5.37;64.21;99944.75;4994530;28;45564;-77
2021/12/09 00:18:24;;;;;;;;;1.25;1.25;;;;;5.56;64.14;99969.09;4994678;27;45361;-74
2021/12/09 00:20:49;;;;;;;;;6.00;5.00;;;;;5.21;64.45;99926.47;4994392;28;45387;-74
2021/12/09 00:23:15;;;;;;;;;5.50;5.50;;;;;5.46;64.15;99969.94;4994379;27;45560;-75
2021/12/09 00:25:40;;;;;;;;;1.00;1.00;;;;;5.45;63.89;99964.75;4976720;28;46627;-76
2021/12/09 00:28:06;;;;;;;;;5.00;4.00;;;;;5.53;64.31;99963.84;4994283;28;45351;-76
2021/12/09 00:30:33;;;;;;;;;1.50;1.50;;;;;5.30;64.01;99934.31;4994444;28;45400;-74
2021/12/09 00:33:01;;;;;;;;;3.50;2.00;;;;;5.48;64.68;99955.16;4994350;27;45349;-73
2021/12/09 00:35:42;;;;;;;;;1.00;1.00;;;;;5.57;64.38;99972.56;4994083;28;45671;-75
2021/12/09 00:38:10;;;;;;;;;4.00;2.25;;;;;5.35;63.93;99919.53;4976380;28;45351;-74
2021/12/09 00:40:36;;;;;;;;;1.00;1.00;;;;;5.35;64.38;99927.34;4994603;28;45690;-75
2021/12/09 00:43:03;;;;;;;;;1.25;1.25;;;;;5.54;63.84;99962.13;4994398;28;45459;-76
2021/12/09 00:45:33;;;;;;;;;1.00;1.00;;;;;5.37;63.85;99949.09;4994010;28;45785;-74
2021/12/09 00:47:58;;;;;;;;;1.00;1.00;;;;;5.58;63.93;99979.50;4993762;28;45358;-76
2021/12/09 00:50:28;;;;;;;;;1.50;1.50;;;;;5.52;63.69;99969.09;4994134;28;45348;-75
2021/12/09 00:52:54;;;;;;;;;2.00;2.00;;;;;5.44;63.78;99955.16;4994307;28;45574;-74
2021/12/09 00:55:20;;;;;;;;;3.00;3.00;;;;;5.57;64.22;99986.47;4995663;27;47291;-74
2021/12/09 00:57:46;;;;;;;;;1.00;1.00;;;;;5.41;64.23;99965.59;4996993;28;45432;-74
2021/12/09 01:00:17;;;;;;;;;2.00;2.00;;;;;5.36;63.94;99963.00;4997021;27;45262;-74
2021/12/09 01:02:43;;;;;;;;;2.00;2.00;;;;;5.51;64.24;99978.66;4996778;27;45380;-74
2021/12/09 01:05:09;;;;;;;;;1.00;1.00;;;;;5.24;64.17;99945.63;4996684;27;47173;-74
2021/12/09 01:07:35;;;;;;;;;2.25;1.00;;;;;5.29;64.49;99945.59;4996455;28;45442;-72
2021/12/09 01:10:03;;;;;;;;;0.00;0.00;;;;;5.35;64.32;99969.09;4996907;28;45297;-75
2021/12/09 01:12:28;;;;;;;;;5.00;5.00;;;;;5.38;64.30;99969.09;4997018;28;45329;-74
2021/12/09 01:14:54;;;;;;;;;1.50;0.50;;;;;5.30;64.87;99947.34;4996407;27;47176;-73
2021/12/09 01:17:19;;;;;;;;;1.25;0.00;;;;;5.22;64.23;99938.66;4996668;27;45329;-73
2021/12/09 01:19:45;;;;;;;;;1.00;1.00;;;;;5.37;63.98;99956.94;4996534;28;45230;-76
2021/12/09 01:22:10;;;;;;;;;5.00;4.50;;;;;5.45;64.74;99976.03;4979240;28;45357;-74
2021/12/09 01:24:36;;;;;;;;;2.50;2.50;;;;;5.44;64.20;99976.03;4978872;28;46341;-74
2021/12/09 01:27:02;;;;;;;;;2.00;2.00;;;;;5.48;64.08;99983.88;4996577;28;45451;-74
2021/12/09 01:29:40;;;;;;;;;2.00;1.00;;;;;5.57;64.11;100004.75;4996734;28;45340;-74
2021/12/09 01:32:08;;;;;;;;;4.00;2.00;;;;;5.62;64.44;100009.97;4996254;28;45466;-75
2021/12/09 01:34:36;;;;;;;;;2.00;2.00;;;;;5.59;64.18;99992.56;4996142;27;47415;-74
2021/12/09 01:37:03;;;;;;;;;3.00;1.75;;;;;5.50;63.99;99978.66;4996517;27;45333;-74
2021/12/09 01:39:31;;;;;;;;;0.00;0.00;;;;;5.65;63.36;100007.34;4978822;28;45439;-76
2021/12/09 01:41:57;;;;;;;;;0.00;0.00;;;;;5.47;63.72;99982.13;4996852;28;45494;-76
2021/12/09 01:44:23;;;;;;;;;1.00;1.00;;;;;5.63;63.93;100008.22;4996271;28;46375;-75
2021/12/09 01:46:49;;;;;;;;;0.75;0.75;;;;;5.59;63.60;100016.06;4996440;28;45359;-76
2021/12/09 01:49:14;;;;;;;;;1.50;1.50;;;;;5.62;63.73;100014.34;4996785;27;45363;-75
2021/12/09 01:51:41;;;;;;;;;2.00;1.00;;;;;5.50;64.08;99992.56;4996482;28;45552;-75
2021/12/09 01:54:08;;;;;;;;;0.00;0.00;;;;;5.63;63.64;100014.31;4996545;28;45353;-75
2021/12/09 01:56:33;;;;;;;;;0.00;0.00;;;;;5.48;63.70;99996.91;4996349;28;45659;-76
2021/12/09 01:59:02;;;;;;;;;1.00;1.00;;;;;5.26;63.38;99950.81;4996540;28;45226;-75
2021/12/09 02:01:29;;;;;;;;;1.75;1.75;;;;;5.74;63.82;100022.16;4996673;28;45427;-77
2021/12/09 02:03:55;;;;;;;;;0.25;0.25;;;;;5.65;63.27;100006.47;4996024;28;46193;-76
2021/12/09 02:06:22;;;;;;;;;2.00;0.75;;;;;5.75;63.07;100027.34;4995693;27;45440;-77
2021/12/09 02:08:48;;;;;;;;;1.00;1.00;;;;;5.62;63.27;100001.28;4996133;28;45380;-76
2021/12/09 02:11:14;;;;;;;;;1.00;1.00;;;;;5.69;63.25;100013.47;4996470;28;45413;-75
2021/12/09 02:13:39;;;;;;;;;0.00;0.00;;;;;5.76;63.11;100031.72;4996284;27;47159;-76
2021/12/09 02:16:04;;;;;;;;;0.75;0.75;;;;;5.55;63.04;99977.78;4995744;27;45383;-77
2021/12/09 02:18:30;;;;;;;;;0.00;0.00;;;;;5.71;63.23;100015.19;4996337;27;45383;-75
2021/12/09 02:21:29;;;;;;;;;2.25;1.00;;;;;5.78;63.68;100029.09;4996347;27;45520;-77
2021/12/09 02:23:59;;;;;;;;;0.50;0.50;;;;;5.80;63.42;100024.75;5036825;28;46219;-76
2021/12/09 02:26:27;;;;;;;;;0.75;0.25;;;;;5.81;63.62;100023.88;5036429;27;45448;-75
2021/12/09 02:28:54;;;;;;;;;0.75;0.75;;;;;5.84;63.42;100023.88;5036736;28;45456;-76
2021/12/09 02:31:21;;;;;;;;;0.50;0.50;;;;;5.64;63.07;99981.25;5037017;28;45479;-77
2021/12/09 02:33:47;;;;;;;;;1.50;1.50;;;;;5.82;63.61;100015.16;5036135;28;46992;-78
2021/12/09 02:36:12;;;;;;;;;2.00;0.00;;;;;5.56;63.36;99976.03;5036542;28;45383;-78
2021/12/09 02:38:43;;;;;;;;;2.25;0.00;;;;;5.85;63.39;100020.38;5036885;28;45393;-78
2021/12/09 02:41:17;;;;;;;;;2.25;2.25;;;;;5.67;63.31;100008.22;5036658;28;45348;-75
2021/12/09 02:43:44;;;;;;;;;0.75;0.75;;;;;5.73;63.29;100005.63;5036182;28;47476;-74
2021/12/09 02:46:10;;;;;;;;;0.75;0.75;;;;;5.89;63.40;100027.34;5035827;28;45593;-76
2021/12/09 02:48:36;;;;;;;;;0.50;0.50;;;;;5.82;63.38;100012.56;5036142;28;45511;-74
2021/12/09 02:51:05;;;;;;;;;3.00;1.00;;;;;5.91;63.57;100020.38;5036384;28;45234;-76
2021/12/09 02:53:31;;;;;;;;;0.75;0.75;;;;;5.94;63.20;100025.63;5036150;28;46125;-74
2021/12/09 02:55:56;;;;;;;;;0.50;0.50;;;;;5.97;63.04;100033.44;5036121;28;45458;-75
2021/12/09 02:58:22;;;;;;;;;0.00;0.00;;;;;5.91;63.45;100015.16;5034476;28;45461;-75
2021/12/09 03:01:00;;;;;;;;;2.50;1.50;;;;;5.94;63.37;100041.28;4995889;28;45485;-76
2021/12/09 03:03:26;;;;;;;;;1.50;1.00;;;;;5.85;63.24;100040.41;4977937;28;46383;-75
2021/12/09 03:05:56;;;;;;;;;0.00;0.00;;;;;5.59;63.57;99986.50;4995607;28;45459;-75
2021/12/09 03:08:33;;;;;;;;;0.00;0.00;;;;;5.85;63.10;100028.22;4995578;27;45297;-73
2021/12/09 03:11:10;;;;;;;;;1.00;1.00;;;;;5.65;63.61;100003.88;4977886;28;45383;-76
2021/12/09 03:13:38;;;;;;;;;0.00;0.00;;;;;5.63;63.56;100003.00;4995209;28;47306;-75
2021/12/09 03:16:04;;;;;;;;;3.50;0.00;;;;;5.80;63.71;100045.63;4995512;27;45304;-75
2021/12/09 03:18:30;;;;;;;;;1.00;1.00;;;;;5.83;63.75;100043.03;4976868;28;45470;-76
2021/12/09 03:20:56;;;;;;;;;0.00;0.00;;;;;5.41;63.39;99966.47;4995541;27;45420;-74
2021/12/09 03:23:22;;;;;;;;;0.50;0.50;;;;;5.75;63.36;100029.97;4995357;28;45347;-73
2021/12/09 03:25:49;;;;;;;;;1.75;0.50;;;;;5.26;63.31;99951.69;4977661;28;45366;-74
2021/12/09 03:28:14;;;;;;;;;1.00;0.00;;;;;5.75;63.71;100037.78;4995326;28;45408;-75
2021/12/09 03:30:40;;;;;;;;;1.00;1.00;;;;;5.67;63.92;100025.63;4977725;28;45254;-75
2021/12/09 03:33:05;;;;;;;;;0.00;0.00;;;;;5.62;63.73;100022.16;4994914;28;47257;-75
2021/12/09 03:35:31;;;;;;;;;1.00;1.00;;;;;5.74;63.98;100045.66;4977646;28;45512;-75
2021/12/09 03:37:56;;;;;;;;;2.25;2.25;;;;;5.71;63.65;100032.59;4995201;28;45431;-75
2021/12/09 03:40:22;;;;;;;;;1.50;1.50;;;;;5.61;63.97;100021.28;4995409;28;45420;-75
2021/12/09 03:42:47;;;;;;;;;0.75;0.25;;;;;5.66;63.47;100024.78;4994842;27;47121;-73
2021/12/09 03:45:14;;;;;;;;;0.00;0.00;;;;;5.79;63.47;100052.59;4994971;28;45791;-74
2021/12/09 03:47:41;;;;;;;;;2.00;1.00;;;;;5.84;63.86;100051.75;4995128;28;45454;-74
2021/12/09 03:50:10;;;;;;;;;0.00;0.00;;;;;5.85;63.71;100056.06;4995368;28;45324;-75
2021/12/09 03:52:35;;;;;;;;;1.50;1.00;;;;;5.87;63.39;100055.19;4994662;27;45507;-74
2021/12/09 03:55:01;;;;;;;;;1.00;1.00;;;;;5.68;64.06;100024.75;4994715;28;45408;-75
2021/12/09 03:57:27;;;;;;;;;1.00;1.00;;;;;5.80;63.79;100058.69;4977423;28;45376;-75
2021/12/09 03:59:53;;;;;;;;;0.50;0.50;;;;;5.73;63.92;100049.13;4995055;28;45263;-74
2021/12/09 04:02:20;;;;;;;;;0.25;0.00;;;;;5.71;63.79;100048.28;4994883;28;46345;-76
2021/12/09 04:04:45;;;;;;;;;1.25;1.25;;;;;5.82;63.81;100072.63;4977084;28;45442;-76
2021/12/09 04:07:11;;;;;;;;;1.50;1.50;;;;;5.72;63.29;100057.84;4977327;28;45443;-73
2021/12/09 04:09:36;;;;;;;;;1.00;1.00;;;;;5.59;63.52;100039.56;4995384;28;45403;-75
2021/12/09 04:12:02;;;;;;;;;4.00;4.00;;;;;5.70;63.80;100068.25;4994724;28;45375;-74
2021/12/09 04:14:28;;;;;;;;;2.00;2.00;;;;;5.74;63.86;100069.16;4994706;28;45335;-74
2021/12/09 04:16:54;;;;;;;;;1.00;1.00;;;;;5.55;63.61;100027.38;4994968;27;45322;-73
2021/12/09 04:19:19;;;;;;;;;3.00;1.00;;;;;5.75;63.93;100061.28;4995087;28;45461;-74
2021/12/09 04:21:45;;;;;;;;;1.25;1.25;;;;;5.77;63.52;100058.69;4994494;27;45991;-74
2021/12/09 04:24:12;;;;;;;;;2.00;2.00;;;;;5.90;63.74;100073.47;4994629;28;45223;-74
2021/12/09 04:26:42;;;;;;;;;1.50;1.50;;;;;5.81;63.33;100060.44;4994512;27;45421;-74
2021/12/09 04:29:10;;;;;;;;;1.25;1.00;;;;;5.90;63.63;100077.84;4993501;28;45495;-73
2021/12/09 04:31:36;;;;;;;;;1.50;1.50;;;;;5.81;63.76;100065.66;4993835;28;47225;-73
2021/12/09 04:34:02;;;;;;;;;4.50;2.00;;;;;5.77;63.70;100058.69;4976610;28;45377;-74
2021/12/09 04:36:28;;;;;;;;;1.00;1.00;;;;;5.72;63.67;100055.22;4994240;28;45396;-76
2021/12/09 04:38:54;;;;;;;;;1.00;1.00;;;;;5.86;63.55;100084.81;4994194;28;45593;-75
2021/12/09 04:41:20;;;;;;;;;1.25;0.75;;;;;5.85;63.90;100077.84;4994372;28;46329;-74
2021/12/09 04:43:47;;;;;;;;;1.00;1.00;;;;;5.83;63.55;100084.81;4994522;28;45490;-73
2021/12/09 04:46:14;;;;;;;;;3.00;1.25;;;;;5.74;64.03;100062.19;4976801;28;45412;-72
2021/12/09 04:48:39;;;;;;;;;0.00;0.00;;;;;5.77;63.36;100066.53;4976875;28;45400;-72
2021/12/09 04:51:06;;;;;;;;;0.00;0.00;;;;;5.75;63.55;100057.81;4994155;28;46190;-74
2021/12/09 04:53:32;;;;;;;;;1.25;1.25;;;;;5.78;63.78;100068.25;4994223;28;45350;-74
2021/12/09 04:55:58;;;;;;;;;1.00;1.00;;;;;5.84;63.40;100081.31;4994388;28;45218;-75
2021/12/09 04:58:24;;;;;;;;;2.00;2.00;;;;;5.86;63.97;100082.19;4994503;28;45234;-73
2021/12/09 05:00:51;;;;;;;;;5.00;1.00;;;;;5.87;63.76;100080.44;4993908;28;47234;-74
2021/12/09 05:03:17;;;;;;;;;1.00;1.00;;;;;5.77;63.32;100064.78;4993862;28;45401;-74
2021/12/09 05:05:52;;;;;;;;;1.50;1.50;;;;;5.81;63.20;100073.50;4994023;28;45255;-74
2021/12/09 05:08:20;;;;;;;;;1.50;1.50;;;;;5.76;63.87;100056.97;4976420;28;45677;-75
2021/12/09 05:11:13;;;;;;;;;1.00;1.00;;;;;5.91;63.39;100085.69;4993304;27;46293;-74
2021/12/09 05:13:40;;;;;;;;;2.25;1.75;;;;;5.57;63.95;100035.22;4993855;27;45445;-74
2021/12/09 05:16:07;;;;;;;;;2.00;1.00;;;;;5.70;64.13;100064.78;4993912;28;45272;-76
2021/12/09 05:18:35;;;;;;;;;1.00;1.00;;;;;5.51;63.76;100036.09;4993867;28;45394;-75
2021/12/09 05:21:06;;;;;;;;;1.25;1.25;;;;;5.57;64.18;100054.34;4993472;28;45412;-76
2021/12/09 05:23:32;;;;;;;;;3.00;2.00;;;;;5.80;64.16;100079.56;4993960;28;45238;-76
2021/12/09 05:25:58;;;;;;;;;2.00;2.00;;;;;5.80;64.29;100083.06;4993965;28;45677;-76
2021/12/09 05:28:32;;;;;;;;;2.00;2.00;;;;;5.69;63.91;100066.53;4993840;28;45260;-77
2021/12/09 05:33:42;;;;;;;;;3.00;1.50;;;;;5.82;64.00;100083.06;4993381;28;45345;-74
2021/12/09 05:36:08;;;;;;;;;0.25;0.25;;;;;5.52;63.69;100034.34;4993678;28;45346;-78
2021/12/09 05:38:33;;;;;;;;;1.50;0.75;;;;;5.88;63.98;100088.31;4976169;28;45328;-77
2021/12/09 05:40:58;;;;;;;;;3.00;2.00;;;;;5.90;64.23;100088.28;4995225;27;45796;-78
2021/12/09 05:43:26;;;;;;;;;2.00;2.00;;;;;5.75;63.88;100076.09;4996265;28;45357;-77
2021/12/09 05:45:52;;;;;;;;;1.00;1.00;;;;;5.87;63.60;100094.38;4978783;27;45341;-76
2021/12/09 05:48:18;;;;;;;;;3.00;3.00;;;;;5.71;63.72;100069.16;4996574;28;45385;-76
2021/12/09 05:50:44;;;;;;;;;1.00;1.00;;;;;5.59;63.91;100049.13;4996063;27;46398;-76
2021/12/09 05:53:11;;;;;;;;;1.75;1.75;;;;;5.99;63.98;100109.22;4996258;28;45477;-78
2021/12/09 05:55:36;;;;;;;;;2.75;2.75;;;;;5.99;63.75;100106.59;4996380;27;45290;-77
2021/12/09 05:58:02;;;;;;;;;1.25;1.25;;;;;5.98;63.84;100105.72;4996490;27;45297;-77
2021/12/09 06:00:29;;;;;;;;;2.00;2.00;;;;;5.99;63.51;100114.44;4978490;28;46904;-77
2021/12/09 06:02:54;;;;;;;;;4.00;2.75;;;;;5.92;63.70;100110.91;4978178;28;45351;-77
2021/12/09 06:05:20;;;;;;;;;3.25;2.50;;;;;5.95;63.74;100112.69;4978558;28;45835;-80
2021/12/09 06:07:48;;;;;;;;;2.75;1.00;;;;;5.95;63.36;100105.75;4996288;28;45442;-79
2021/12/09 06:10:13;;;;;;;;;2.00;2.00;;;;;5.92;63.28;100094.38;4996013;27;46069;-80
2021/12/09 06:12:39;;;;;;;;;6.25;4.75;;;;;5.57;63.92;100030.84;4996864;27;45277;-80
2021/12/09 06:15:06;;;;;;;;;3.00;3.00;;;;;5.82;63.57;100087.41;4996509;28;45385;-79
2021/12/09 06:17:31;;;;;;;;;2.00;2.00;;;;;5.84;64.01;100097.00;4996150;28;45236;-75
2021/12/09 06:19:56;;;;;;;;;4.00;3.00;;;;;5.64;63.26;100063.06;4977986;28;48412;-74
2021/12/09 06:22:22;;;;;;;;;5.00;5.00;;;;;5.69;63.80;100071.75;4977650;28;45364;-75
2021/12/09 06:24:48;;;;;;;;;1.75;1.75;;;;;5.85;63.63;100106.56;4978010;28;45286;-78
2021/12/09 06:27:13;;;;;;;;;4.25;4.25;;;;;5.89;63.94;100110.06;4995530;27;45259;-78
2021/12/09 06:29:40;;;;;;;;;3.00;3.00;;;;;5.94;63.66;100127.50;4995667;28;45362;-76
2021/12/09 06:32:06;;;;;;;;;5.75;2.75;;;;;5.95;63.82;100124.03;4995081;28;45403;-77
2021/12/09 06:34:32;;;;;;;;;7.50;7.50;;;;;5.47;63.55;100051.75;4977738;27;45570;-75
2021/12/09 06:36:58;;;;;;;;;2.00;2.00;;;;;5.95;63.52;100136.19;4977790;28;45573;-76
2021/12/09 06:39:23;;;;;;;;;3.00;3.00;;;;;5.95;63.88;100126.66;4977752;28;46052;-75
2021/12/09 06:41:49;;;;;;;;;2.25;2.25;;;;;5.80;63.48;100114.38;4995018;28;45306;-75
2021/12/09 06:44:14;;;;;;;;;11.25;5.25;;;;;5.79;63.61;100109.19;4977989;28;45381;-75
2021/12/09 06:46:40;;;;;;;;;5.25;5.25;;;;;5.93;63.96;100151.84;4995419;28;45446;-77
2021/12/09 06:49:06;;;;;;;;;698.80;602.60;;;;;5.84;63.59;100124.84;4994611;27;45451;-77
2021/12/09 06:51:32;;;;;;;;;16.00;12.75;;;;;5.92;63.75;100152.69;4994267;27;45644;-75
2021/12/09 06:53:58;;;;;;;;;6.00;6.00;;;;;5.93;63.74;100151.00;4994821;28;45453;-75
2021/12/09 06:56:24;;;;;;;;;9.75;6.25;;;;;5.62;63.94;100100.47;4995479;28;45329;-79
2021/12/09 06:58:50;;;;;;;;;5.00;4.25;;;;;5.90;63.57;100159.66;4994649;28;46363;-78
2021/12/09 07:01:16;;;;;;;;;5.25;3.00;;;;;5.61;64.00;100130.03;4977084;28;45658;-77
2021/12/09 07:03:41;;;;;;;;;6.75;5.00;;;;;5.68;64.07;100129.19;4995190;27;45458;-76
2021/12/09 07:06:11;;;;;;;;;6.25;6.25;;;;;5.80;63.64;100150.09;4995247;27;45413;-74
2021/12/09 07:08:45;;;;;;;;;6.00;3.00;;;;;5.86;64.30;100157.94;4994952;27;46543;-75
2021/12/09 07:11:11;;;;;;;;;3.00;3.00;;;;;5.85;64.16;100161.41;4995163;28;45250;-77
2021/12/09 07:13:37;;;;;;;;;2.75;2.75;;;;;5.77;63.89;100144.88;4995087;27;45320;-77
2021/12/09 07:16:03;;;;;;;;;7.25;5.50;;;;;5.85;63.89;100164.00;4995129;28;45649;-80
2021/12/09 07:18:29;;;;;;;;;3.75;3.75;;;;;5.56;64.02;100102.22;4995491;27;45548;-80
2021/12/09 07:20:56;;;;;;;;;5.75;5.00;;;;;5.85;64.31;100161.41;4995246;27;45431;-79
2021/12/09 07:23:22;;;;;;;;;4.50;1.75;;;;;5.75;63.72;100150.06;4995259;27;45314;-78
2021/12/09 07:25:47;;;;;;;;;6.00;6.00;;;;;5.71;64.12;100144.88;4995631;27;45313;-79
2021/12/09 07:28:12;;;;;;;;;4.00;4.00;;;;;5.73;64.10;100164.00;4994828;28;45363;-76
2021/12/09 07:30:38;;;;;;;;;5.50;4.75;;;;;5.64;63.91;100136.16;4977703;28;45349;-78
2021/12/09 07:33:04;;;;;;;;;10.50;9.00;;;;;5.72;64.05;100144.00;4976884;28;45483;-78
2021/12/09 07:35:30;;;;;;;;;9.00;8.00;;;;;5.68;64.21;100135.28;4995605;28;45306;-79
2021/12/09 07:37:58;;;;;;;;;14.75;14.00;;;;;5.74;64.52;100145.72;4976905;28;47416;-79
2021/12/09 07:40:23;;;;;;;;;6.25;5.50;;;;;5.83;64.25;100151.81;4995151;28;45413;-79
2021/12/09 07:42:49;;;;;;;;;7.50;6.75;;;;;5.68;64.40;100137.88;4994953;27;45393;-75
2021/12/09 07:45:16;;;;;;;;;9.75;6.25;;;;;5.78;64.08;100159.66;4994754;27;45465;-79
2021/12/09 07:47:43;;;;;;;;;11.50;9.50;;;;;5.75;63.89;100146.59;4993901;28;46228;-77
2021/12/09 07:50:13;;;;;;;;;7.00;7.00;;;;;5.82;64.01;100158.78;4976540;28;46352;-86
2021/12/09 07:52:44;;;;;;;;;12.00;7.75;;;;;5.72;64.42;100139.63;4993069;28;45334;-80
2021/12/09 07:55:11;;;;;;;;;5.25;5.25;;;;;5.78;63.86;100157.03;4995717;27;45328;-87
2021/12/09 07:57:38;;;;;;;;;6.00;4.50;;;;;5.24;64.06;100077.78;4994709;28;46100;-83
2021/12/09 08:00:08;;;;;;;;;12.00;7.50;;;;;5.47;63.95;100117.84;4994475;28;45447;-87
2021/12/09 08:02:34;;;;;;;;;9.50;7.00;;;;;5.65;63.76;100158.78;4994938;27;45357;-83
2021/12/09 08:04:59;;;;;;;;;6.00;6.00;;;;;5.70;64.16;100158.78;4995967;28;45423;-91
2021/12/09 08:07:25;;;;;;;;;10.00;7.50;;;;;5.47;64.16;100136.13;4999102;28;46464;-89
2021/12/09 08:09:51;;;;;;;;;7.00;5.25;;;;;5.43;64.00;100131.75;4997019;28;45348;-84
2021/12/09 08:12:17;;;;;;;;;11.50;10.00;;;;;5.63;64.59;100175.31;4997694;27;45302;-86
2021/12/09 08:14:42;;;;;;;;;21.25;16.50;;;;;5.21;64.27;100096.91;4996619;28;45373;-83
2021/12/09 08:19:54;;;;;;;;;5.75;5.75;;;;;5.49;64.34;100142.22;5034655;28;45418;-83
2021/12/09 08:22:19;;;;;;;;;10.00;7.75;;;;;5.64;64.42;100161.41;5035404;28;45398;-82
2021/12/09 08:24:44;;;;;;;;;7.75;6.50;;;;;5.56;64.19;100146.59;5033908;28;45473;-80
2021/12/09 08:27:10;;;;;;;;;9.00;9.00;;;;;5.57;64.24;100161.38;5015149;28;46203;-76
2021/12/09 08:29:35;;;;;;;;;9.25;8.75;;;;;5.66;64.21;100165.75;5013425;28;45322;-77
2021/12/09 08:32:01;;;;;;;;;7.50;7.50;;;;;5.62;64.07;100157.91;5013689;28;45351;-78
2021/12/09 08:34:26;;;;;;;;;8.00;8.00;;;;;5.63;63.88;100159.63;5013455;28;45406;-80
2021/12/09 08:36:52;;;;;;;;;14.75;9.00;;;;;5.62;63.96;100153.56;4996662;28;46232;-78
2021/12/09 08:39:18;;;;;;;;;12.25;9.75;;;;;5.65;64.40;100161.38;5013425;28;45435;-79
2021/12/09 08:41:44;;;;;;;;;6.25;6.25;;;;;5.32;63.83;100104.78;5014180;28;46066;-83
2021/12/09 08:44:10;;;;;;;;;9.00;9.00;;;;;5.42;64.15;100124.81;5013767;28;45476;-79
2021/12/09 08:46:45;;;;;;;;;7.00;6.00;;;;;5.29;64.15;100102.16;4997382;28;47746;-80
2021/12/09 08:49:11;;;;;;;;;7.75;6.25;;;;;5.70;64.27;100172.69;5014123;28;45426;-78
2021/12/09 08:51:37;;;;;;;;;6.25;6.25;;;;;5.70;63.87;100175.31;5014014;28;45454;-77
2021/12/09 08:54:02;;;;;;;;;7.00;7.00;;;;;5.39;64.12;100119.59;5013511;28;46066;-77
2021/12/09 08:56:28;;;;;;;;;5.00;5.00;;;;;5.75;63.94;100183.16;5005802;28;46629;-79
2021/12/09 08:58:53;;;;;;;;;12.75;8.00;;;;;4.93;63.96;100051.66;4975334;28;45179;-81
2021/12/09 09:01:19;;;;;;;;;12.00;10.75;;;;;5.72;64.00;100178.81;4993803;28;45477;-79
2021/12/09 09:03:44;;;;;;;;;5.00;3.00;;;;;5.73;63.62;100184.88;4993713;28;45213;-82
2021/12/09 09:06:09;;;;;;;;;6.25;5.75;;;;;5.57;63.84;100157.91;4992927;28;45640;-72
2021/12/09 09:08:35;;;;;;;;;11.25;11.00;;;;;5.65;63.66;100186.63;4993317;28;45434;-83
2021/12/09 09:11:00;;;;;;;;;8.00;6.25;;;;;5.72;63.41;100201.44;4993422;28;45850;-83
2021/12/09 09:13:26;;;;;;;;;7.25;7.25;;;;;5.79;63.84;100197.97;4975676;28;45447;-82
2021/12/09 09:15:52;;;;;;;;;8.00;6.00;;;;;5.83;63.49;100209.28;4976816;28;46252;-81
2021/12/09 09:18:18;;;;;;;;;8.50;8.50;;;;;5.94;63.61;100221.53;4995890;28;45443;-82
2021/12/09 09:20:45;;;;;;;;;8.75;7.50;;;;;5.70;63.21;100172.69;4977964;28;45404;-82
2021/12/09 09:23:14;;;;;;;;;13.50;13.25;;;;;6.00;63.47;100221.56;4996275;28;45320;-82
2021/12/09 09:25:40;;;;;;;;;7.75;6.00;;;;;5.61;63.59;100159.66;4995887;28;45314;-83
2021/12/09 09:28:07;;;;;;;;;7.00;5.75;;;;;5.79;63.35;100188.38;4995579;28;45320;-81
2021/12/09 09:30:36;;;;;;;;;12.25;8.00;;;;;6.01;63.27;100225.88;4996108;28;45296;-79
2021/12/09 09:33:12;;;;;;;;;6.50;6.25;;;;;6.04;63.49;100221.53;4995695;28;45330;-83
2021/12/09 09:35:40;;;;;;;;;8.00;8.00;;;;;6.07;63.81;100229.38;4995244;28;45375;-81
2021/12/09 09:38:10;;;;;;;;;2.00;2.00;;;;;5.98;63.63;100215.44;4995315;28;45228;-82
2021/12/09 09:40:49;;;;;;;;;10.00;7.50;;;;;6.13;63.29;100224.16;4977404;28;45383;-83
2021/12/09 09:43:28;;;;;;;;;8.00;6.00;;;;;5.94;63.24;100187.56;4995983;28;45359;-82
2021/12/09 09:45:56;;;;;;;;;8.00;7.25;;;;;6.12;63.07;100219.81;4995260;28;47166;-85
2021/12/09 09:48:22;;;;;;;;;11.00;10.00;;;;;6.21;63.41;100238.09;4995533;28;45296;-83
2021/12/09 09:50:49;;;;;;;;;8.00;8.00;;;;;6.30;63.19;100248.56;4995885;28;45247;-84
2021/12/09 09:53:16;;;;;;;;;11.00;7.75;;;;;6.33;63.04;100248.56;4995999;28;45490;-82
2021/12/09 09:55:41;;;;;;;;;6.75;6.75;;;;;6.17;62.73;100221.56;4996558;28;46471;-84
2021/12/09 09:58:07;;;;;;;;;7.25;7.25;;;;;6.04;63.39;100204.13;4978318;28;45429;-84
2021/12/09 10:00:32;;;;;;;;;7.00;5.50;;;;;6.42;62.75;100253.81;4995775;28;45712;-86
2021/12/09 10:03:01;;;;;;;;;5.50;5.00;;;;;6.29;62.74;100215.44;4995500;28;45322;-85
2021/12/09 10:05:35;;;;;;;;;5.00;5.00;;;;;6.50;62.55;100247.69;4995571;28;46212;-86
2021/12/09 10:08:01;;;;;;;;;10.75;9.25;;;;;6.43;62.61;100237.22;4977838;28;45278;-85
2021/12/09 10:10:27;;;;;;;;;13.25;11.00;;;;;6.42;62.66;100216.34;4995349;28;45403;-83
2021/12/09 10:13:07;;;;;;;;;9.25;7.50;;;;;6.42;63.19;100214.59;4995934;28;45383;-84
2021/12/09 10:15:33;;;;;;;;;11.25;10.75;;;;;6.61;63.05;100241.59;4995066;28;46425;-82
2021/12/09 10:17:58;;;;;;;;;6.00;4.25;;;;;6.64;62.46;100222.41;4994808;28;45447;-85
2021/12/09 10:20:41;;;;;;;;;12.00;10.75;;;;;6.68;62.62;100224.13;4977279;28;45365;-82
2021/12/09 10:23:27;;;;;;;;;7.00;7.00;;;;;6.79;62.80;100232.84;4995632;28;45460;-82
2021/12/09 10:26:12;;;;;;;;;7.50;6.75;;;;;6.82;62.46;100232.84;4977260;28;47215;-83
2021/12/09 10:28:40;;;;;;;;;12.75;9.25;;;;;6.82;62.14;100209.28;4994269;28;45728;-83
2021/12/09 10:31:14;;;;;;;;;9.00;8.25;;;;;6.93;62.33;100211.88;4994913;28;45270;-82
2021/12/09 10:34:02;;;;;;;;;6.00;6.00;;;;;6.98;61.88;100215.38;4977107;28;45591;-84
2021/12/09 10:36:43;;;;;;;;;16.00;14.50;;;;;6.70;61.86;100149.16;4994674;28;47052;-82
2021/12/09 10:39:26;;;;;;;;;5.50;5.50;;;;;6.80;61.41;100169.19;4977644;28;45377;-82
2021/12/09 10:41:53;;;;;;;;;3.00;3.00;;;;;6.73;61.71;100143.91;4994929;28;45542;-82
2021/12/09 10:44:40;;;;;;;;;8.50;7.50;;;;;6.97;61.69;100173.50;4994897;28;45399;-82
2021/12/09 10:47:22;;;;;;;;;8.00;7.00;;;;;7.08;61.91;100193.53;4994895;28;46826;-82
2021/12/09 10:50:02;;;;;;;;;13.00;9.50;;;;;7.14;61.15;100186.53;4994552;28;45497;-81
2021/12/09 10:52:39;;;;;;;;;7.75;5.50;;;;;6.99;61.69;100161.28;4977077;28;45342;-82
2021/12/09 10:55:12;;;;;;;;;4.50;4.00;;;;;7.14;61.74;100173.44;4995799;28;45379;-81
2021/12/09 10:57:38;;;;;;;;;4.25;4.25;;;;;6.95;61.13;100136.88;4994837;28;45239;-81
2021/12/09 11:00:18;;;;;;;;;3.00;3.00;;;;;7.25;61.33;100180.38;4994940;28;45760;-82
2021/12/09 11:03:17;;;;;;;;;4.00;4.00;;;;;7.29;61.35;100179.47;4994896;28;45476;-82
2021/12/09 11:05:47;;;;;;;;;8.25;7.00;;;;;7.39;61.41;100174.19;5034967;28;45361;-81
2021/12/09 11:08:18;;;;;;;;;6.00;6.00;;;;;7.44;60.82;100175.91;5034467;28;46560;-83
2021/12/09 11:10:48;;;;;;;;;7.25;6.75;;;;;7.44;60.84;100177.66;5034817;28;45840;-80
2021/12/09 11:13:17;;;;;;;;;4.50;4.50;;;;;7.15;60.70;100115.84;4949575;28;45320;-79
2021/12/09 11:15:58;;;;;;;;;308.00;262.00;;;;;7.51;60.98;100161.03;5034442;28;45369;-76
2021/12/09 11:18:39;;;;;;;;;27.75;26.75;;;;;7.56;60.96;100167.09;4949758;28;47763;-82
2021/12/09 11:21:21;;;;;;;;;10.50;10.00;;;;;7.61;60.39;100162.72;5034126;28;45444;-76
2021/12/09 11:24:16;;;;;;;;;7.00;6.75;;;;;7.67;61.01;100167.06;5034026;28;45517;-79
2021/12/09 11:26:59;;;;;;;;;8.00;7.00;;;;;7.70;60.32;100157.41;5032323;28;45333;-80
2021/12/09 11:29:35;;;;;;;;;12.50;9.25;;;;;7.71;60.60;100150.44;5034248;28;45376;-78
2021/12/09 11:32:19;;;;;;;;;12.00;10.00;;;;;7.72;60.34;100153.06;5033807;28;45425;-80
2021/12/09 11:35:03;;;;;;;;;9.50;9.50;;;;;7.63;59.76;100131.28;5033263;28;45370;-80
2021/12/09 11:40:07;;;;;;;;;29.00;27.25;;;;;7.91;60.59;100151.19;5033833;28;45527;-79
2021/12/09 11:42:44;;;;;;;;;15.50;11.00;;;;;7.69;60.16;100102.41;5055136;28;45282;-76
2021/12/09 11:45:12;;;;;;;;;15.50;15.50;;;;;8.03;60.23;100157.19;5056102;28;45391;-76
2021/12/09 11:47:39;;;;;;;;;13.50;11.50;;;;;8.05;60.11;100151.03;5055883;28;45414;-74